Time;durP1;ratioP1;P1;durP2;ratioP2;P2;SDS_P1;SDS_P2;PMS_P1;PMS_P2;Temp;Humidity;BMP_temperature;BMP_pressure;BME280_temperature;BME280_humidity;BME280_pressure;Samples;Min_cycle;Max_cycle;Signal;HPM_P1;HPM_P2
2023/09/08 00:01:15;;;;;;;10.77;6.20;;;19.10;99.90;;;;;;5105736;28;20074;-87
2023/09/08 00:03:41;;;;;;;13.65;5.82;;;19.00;99.90;;;;;;5105609;28;21309;-87
2023/09/08 00:06:06;;;;;;;7.05;5.22;;;18.90;99.90;;;;;;5102788;28;20396;-87
2023/09/08 00:08:32;;;;;;;13.75;5.93;;;18.80;99.90;;;;;;5104452;28;20030;-87
2023/09/08 00:10:58;;;;;;;14.52;6.10;;;18.70;99.90;;;;;;5106402;28;20031;-87
2023/09/08 00:13:23;;;;;;;8.77;5.72;;;18.60;99.90;;;;;;5098204;28;20023;-87
2023/09/08 00:15:49;;;;;;;8.48;6.15;;;18.50;99.90;;;;;;5105860;28;20040;-87
2023/09/08 00:18:15;;;;;;;16.50;7.38;;;18.50;99.90;;;;;;5101777;28;20072;-87
2023/09/08 00:20:42;;;;;;;8.93;5.88;;;18.40;99.90;;;;;;5104799;28;20031;-87
2023/09/08 00:23:07;;;;;;;9.57;5.75;;;18.40;99.90;;;;;;5106275;28;20539;-86
2023/09/08 00:25:34;;;;;;;16.13;6.43;;;18.40;99.90;;;;;;5103300;28;20115;-87
2023/09/08 00:28:00;;;;;;;16.92;7.35;;;18.30;99.90;;;;;;5104061;28;20018;-87
2023/09/08 00:30:26;;;;;;;11.95;5.57;;;18.30;99.90;;;;;;5105338;28;20028;-86
2023/09/08 00:32:51;;;;;;;13.90;5.57;;;18.20;99.90;;;;;;5105549;28;20039;-86
2023/09/08 00:35:17;;;;;;;8.68;5.55;;;18.20;99.90;;;;;;5103938;28;20070;-87
2023/09/08 00:37:43;;;;;;;18.92;6.20;;;18.10;99.90;;;;;;5102417;28;20106;-87
2023/09/08 00:40:10;;;;;;;10.63;5.90;;;18.00;99.90;;;;;;5104321;28;20024;-87
2023/09/08 00:42:39;;;;;;;8.13;5.50;;;17.90;99.90;;;;;;5107099;28;20028;-87
2023/09/08 00:45:06;;;;;;;10.35;6.15;;;17.90;99.90;;;;;;5104494;28;20075;-86
2023/09/08 00:47:33;;;;;;;14.65;5.53;;;17.80;99.90;;;;;;5102259;28;20051;-87
2023/09/08 00:49:59;;;;;;;12.57;6.38;;;17.70;99.90;;;;;;5103541;28;20401;-86
2023/09/08 00:52:30;;;;;;;12.48;6.50;;;17.70;99.90;;;;;;5105323;28;20039;-86
2023/09/08 00:54:56;;;;;;;10.45;6.43;;;17.60;99.90;;;;;;5105767;28;20988;-86
2023/09/08 00:57:25;;;;;;;13.23;6.28;;;17.60;99.90;;;;;;5105937;28;20058;-86
2023/09/08 00:59:53;;;;;;;8.10;5.55;;;17.50;99.90;;;;;;5098583;28;20110;-87
2023/09/08 01:02:20;;;;;;;13.75;6.85;;;17.50;99.90;;;;;;5101087;28;20114;-86
2023/09/08 01:04:46;;;;;;;10.48;5.63;;;17.50;99.90;;;;;;5099931;28;20023;-87
2023/09/08 01:07:11;;;;;;;10.95;6.43;;;17.50;99.90;;;;;;5104130;28;20035;-86
2023/09/08 01:09:37;;;;;;;9.23;5.47;;;17.50;99.90;;;;;;5102073;28;20457;-87
2023/09/08 01:12:05;;;;;;;7.43;5.30;;;17.50;99.90;;;;;;5102803;28;20050;-86
2023/09/08 01:14:31;;;;;;;12.55;6.80;;;17.40;99.90;;;;;;5102761;28;20389;-86
2023/09/08 01:16:56;;;;;;;13.65;6.45;;;17.40;99.90;;;;;;5102905;28;20131;-86
2023/09/08 01:19:22;;;;;;;11.48;5.90;;;17.40;99.90;;;;;;5103164;28;20034;-87
2023/09/08 01:22:25;;;;;;;14.45;5.35;;;17.30;99.90;;;;;;5100290;28;20023;-86
2023/09/08 01:24:56;;;;;;;11.15;6.40;;;17.30;99.90;;;;;;5100991;28;20031;-86
2023/09/08 01:27:25;;;;;;;11.75;6.07;;;17.30;99.90;;;;;;5098906;28;20020;-87
2023/09/08 01:29:53;;;;;;;7.65;5.88;;;17.30;99.90;;;;;;5103365;28;20031;-87
2023/09/08 01:32:19;;;;;;;10.75;6.00;;;17.20;99.90;;;;;;5104087;28;20443;-86
2023/09/08 01:34:45;;;;;;;11.73;5.38;;;17.20;99.90;;;;;;5103370;28;20024;-86
2023/09/08 01:37:11;;;;;;;15.38;6.43;;;17.20;99.90;;;;;;5102433;28;20031;-86
2023/09/08 01:39:37;;;;;;;9.18;6.25;;;17.10;99.90;;;;;;5099808;28;20023;-87
2023/09/08 01:42:03;;;;;;;8.50;6.32;;;17.10;99.90;;;;;;5103771;28;20054;-86
2023/09/08 01:44:29;;;;;;;13.55;6.47;;;17.00;99.90;;;;;;5104058;28;20024;-86
2023/09/08 01:46:56;;;;;;;11.00;6.28;;;17.00;99.90;;;;;;5101113;28;20027;-86
2023/09/08 01:49:23;;;;;;;9.93;5.88;;;17.00;99.90;;;;;;5099968;28;20435;-86
2023/09/08 01:51:48;;;;;;;10.63;5.80;;;16.90;99.90;;;;;;5101928;28;20519;-87
2023/09/08 01:54:14;;;;;;;7.97;5.32;;;16.90;99.90;;;;;;5105283;28;20028;-86
2023/09/08 01:56:39;;;;;;;9.50;5.90;;;16.90;99.90;;;;;;5097781;28;20468;-86
2023/09/08 01:59:05;;;;;;;8.45;5.85;;;16.90;99.90;;;;;;5099659;28;20024;-86
2023/09/08 02:01:34;;;;;;;8.60;5.63;;;16.90;99.90;;;;;;5102934;28;20028;-86
2023/09/08 02:03:59;;;;;;;8.82;6.28;;;16.80;99.90;;;;;;5102294;28;20027;-86
2023/09/08 02:06:25;;;;;;;10.00;6.10;;;16.70;99.90;;;;;;5095915;28;20043;-86
2023/09/08 02:08:50;;;;;;;10.05;6.10;;;16.70;99.90;;;;;;5102656;28;20028;-86
2023/09/08 02:11:17;;;;;;;9.25;6.47;;;16.70;99.90;;;;;;5103984;28;20035;-85
2023/09/08 02:13:43;;;;;;;9.25;6.00;;;16.70;99.90;;;;;;5100397;28;20024;-86
2023/09/08 02:16:16;;;;;;;12.32;5.85;;;16.60;99.90;;;;;;5103557;28;20027;-86
2023/09/08 02:18:43;;;;;;;8.50;6.07;;;16.50;99.90;;;;;;5100469;28;20481;-86
2023/09/08 02:21:09;;;;;;;9.60;5.63;;;16.50;99.90;;;;;;5103397;28;20032;-86
2023/09/08 02:23:35;;;;;;;11.98;5.93;;;16.50;99.90;;;;;;5104576;28;20035;-85
2023/09/08 02:26:00;;;;;;;9.70;5.82;;;16.50;99.90;;;;;;5101660;28;20489;-86
2023/09/08 02:28:26;;;;;;;10.05;5.68;;;16.40;99.90;;;;;;5104794;28;20112;-86
2023/09/08 02:30:51;;;;;;;8.82;5.30;;;16.40;99.90;;;;;;5106863;28;20031;-86
2023/09/08 02:33:17;;;;;;;9.02;5.70;;;16.40;99.90;;;;;;5102668;28;20122;-85
2023/09/08 02:35:43;;;;;;;9.10;6.18;;;16.40;99.90;;;;;;5107198;28;20027;-86
2023/09/08 02:38:09;;;;;;;13.75;5.63;;;16.30;99.90;;;;;;5107451;28;20028;-86
2023/09/08 02:40:36;;;;;;;9.18;6.13;;;16.30;99.90;;;;;;5105974;28;20046;-86
2023/09/08 02:43:03;;;;;;;9.10;5.97;;;16.20;99.90;;;;;;5106595;28;20036;-86
2023/09/08 02:45:29;;;;;;;8.70;5.57;;;16.20;99.90;;;;;;5101300;28;20101;-86
2023/09/08 02:47:54;;;;;;;9.52;6.03;;;16.20;99.90;;;;;;5102749;28;20028;-86
2023/09/08 02:50:20;;;;;;;12.15;5.70;;;16.10;99.90;;;;;;5101965;28;20043;-86
2023/09/08 02:52:47;;;;;;;10.10;6.03;;;16.20;99.90;;;;;;5105140;28;20480;-86
2023/09/08 02:55:13;;;;;;;9.77;6.35;;;16.10;99.90;;;;;;5105379;28;20073;-87
2023/09/08 02:57:39;;;;;;;11.32;7.25;;;16.00;99.90;;;;;;5105254;28;20498;-86
2023/09/08 03:00:06;;;;;;;15.25;5.90;;;16.00;99.90;;;;;;5106952;28;20381;-86
2023/09/08 03:02:32;;;;;;;13.93;7.07;;;16.00;99.90;;;;;;5108433;28;20427;-86
2023/09/08 03:04:58;;;;;;;7.90;5.82;;;16.00;99.90;;;;;;5102765;28;20023;-86
2023/09/08 03:07:23;;;;;;;15.02;6.15;;;16.00;99.90;;;;;;5106089;28;20515;-86
2023/09/08 03:09:49;;;;;;;8.23;6.18;;;16.00;99.90;;;;;;5098310;28;20070;-86
2023/09/08 03:12:15;;;;;;;8.43;5.90;;;16.00;99.90;;;;;;5106438;28;20036;-86
2023/09/08 03:14:41;;;;;;;6.63;5.53;;;16.00;99.90;;;;;;5106917;28;20100;-86
2023/09/08 03:17:07;;;;;;;10.43;6.35;;;16.00;99.90;;;;;;5109037;28;20472;-86
2023/09/08 03:19:33;;;;;;;9.10;5.40;;;16.00;99.90;;;;;;5104983;28;20036;-85
2023/09/08 03:21:58;;;;;;;17.17;6.03;;;16.00;99.90;;;;;;5100875;28;20024;-86
2023/09/08 03:24:24;;;;;;;13.00;6.28;;;16.00;99.90;;;;;;5104536;28;20028;-86
2023/09/08 03:26:50;;;;;;;9.55;6.47;;;15.90;99.90;;;;;;5107325;28;20055;-86
2023/09/08 03:29:15;;;;;;;10.02;6.07;;;15.90;99.90;;;;;;5106952;28;20461;-85
2023/09/08 03:31:42;;;;;;;8.57;6.50;;;15.80;99.90;;;;;;5104029;28;20063;-86
2023/09/08 03:34:07;;;;;;;10.13;5.40;;;15.80;99.90;;;;;;5104908;28;20516;-85
2023/09/08 03:36:37;;;;;;;13.20;6.82;;;15.80;99.90;;;;;;5100455;27;20023;-86
2023/09/08 03:39:03;;;;;;;6.97;5.15;;;15.80;99.90;;;;;;5098297;27;20023;-86
2023/09/08 03:41:29;;;;;;;7.82;6.10;;;15.80;99.90;;;;;;5101925;28;20114;-86
2023/09/08 03:43:54;;;;;;;12.95;5.90;;;15.80;99.90;;;;;;5103997;28;20110;-87
2023/09/08 03:46:21;;;;;;;8.45;6.25;;;15.80;99.90;;;;;;5105403;28;20031;-86
2023/09/08 03:48:49;;;;;;;13.88;6.80;;;15.80;99.90;;;;;;5099151;28;20027;-85
2023/09/08 03:51:15;;;;;;;11.82;6.75;;;15.70;99.90;;;;;;5101346;28;20500;-86
2023/09/08 03:53:40;;;;;;;10.88;6.30;;;15.70;99.90;;;;;;5101225;27;20022;-86
2023/09/08 03:56:06;;;;;;;8.60;6.22;;;15.70;99.90;;;;;;5104755;28;20023;-85
2023/09/08 03:58:31;;;;;;;15.30;6.97;;;15.60;99.90;;;;;;5099975;28;20450;-85
2023/09/08 04:00:57;;;;;;;10.93;6.70;;;15.60;99.90;;;;;;5101259;28;20103;-84
2023/09/08 04:03:26;;;;;;;12.07;6.72;;;15.60;99.90;;;;;;5106986;28;20125;-85
2023/09/08 04:05:52;;;;;;;18.60;6.25;;;15.60;99.90;;;;;;5104105;28;20070;-85
2023/09/08 04:08:17;;;;;;;10.57;6.40;;;15.60;99.90;;;;;;5107966;28;20052;-86
2023/09/08 04:10:43;;;;;;;13.52;6.93;;;15.60;99.90;;;;;;5102257;28;20076;-86
2023/09/08 04:13:09;;;;;;;16.15;6.78;;;15.60;99.90;;;;;;5103810;28;20042;-86
2023/09/08 04:15:34;;;;;;;13.23;6.72;;;15.60;99.90;;;;;;5108105;27;20468;-86
2023/09/08 04:18:00;;;;;;;14.90;6.80;;;15.60;99.90;;;;;;5105921;28;20024;-85
2023/09/08 04:20:30;;;;;;;12.15;7.28;;;15.50;99.90;;;;;;5103382;28;20019;-87
2023/09/08 04:23:00;;;;;;;8.98;6.20;;;15.50;99.90;;;;;;5105510;28;20132;-85
2023/09/08 04:25:26;;;;;;;11.48;6.30;;;15.50;99.90;;;;;;5107229;28;20024;-85
2023/09/08 04:27:52;;;;;;;9.25;6.45;;;15.50;99.90;;;;;;5106852;28;20100;-86
2023/09/08 04:30:18;;;;;;;13.07;7.15;;;15.50;99.90;;;;;;5107445;28;20464;-86
2023/09/08 04:32:44;;;;;;;9.25;6.28;;;15.40;99.90;;;;;;5104499;28;20095;-87
2023/09/08 04:35:10;;;;;;;10.32;6.10;;;15.40;99.90;;;;;;5105867;28;20032;-85
2023/09/08 04:37:39;;;;;;;8.02;5.88;;;15.40;99.90;;;;;;5107207;28;20385;-85
2023/09/08 04:40:08;;;;;;;14.43;6.70;;;15.30;99.90;;;;;;5105785;28;20122;-87
2023/09/08 04:42:34;;;;;;;9.57;7.00;;;15.40;99.90;;;;;;5104402;28;20027;-87
2023/09/08 04:44:59;;;;;;;11.00;6.70;;;15.30;99.90;;;;;;5100831;28;20020;-85
2023/09/08 04:47:25;;;;;;;9.38;6.88;;;15.30;99.90;;;;;;5105060;28;20039;-85
2023/09/08 04:49:50;;;;;;;10.63;6.50;;;15.30;99.90;;;;;;5100174;28;20042;-85
2023/09/08 04:52:16;;;;;;;8.07;5.75;;;15.30;99.90;;;;;;5101623;28;20046;-85
2023/09/08 04:54:42;;;;;;;12.55;6.70;;;15.30;99.90;;;;;;5101253;27;20040;-85
2023/09/08 04:57:08;;;;;;;12.25;6.97;;;15.30;99.90;;;;;;5103885;28;20035;-85
2023/09/08 04:59:33;;;;;;;10.02;6.70;;;15.30;99.90;;;;;;5100191;28;20498;-86
2023/09/08 05:01:59;;;;;;;13.25;6.40;;;15.30;99.90;;;;;;5103704;28;20477;-85
2023/09/08 05:04:25;;;;;;;11.68;7.82;;;15.30;99.90;;;;;;5104120;28;20469;-85
2023/09/08 05:06:50;;;;;;;11.77;6.20;;;15.30;99.90;;;;;;5102790;28;20031;-85
2023/09/08 05:09:16;;;;;;;11.02;6.57;;;15.30;99.90;;;;;;5102568;28;20418;-85
2023/09/08 05:11:41;;;;;;;12.05;6.97;;;15.30;99.90;;;;;;5103978;28;20270;-85
2023/09/08 05:14:08;;;;;;;12.30;6.70;;;15.30;99.90;;;;;;5103047;28;20050;-85
2023/09/08 05:16:45;;;;;;;10.73;7.22;;;15.30;99.90;;;;;;5102189;28;20033;-85
2023/09/08 05:19:10;;;;;;;13.30;6.57;;;15.30;99.90;;;;;;5098425;28;20072;-85
2023/09/08 05:21:37;;;;;;;11.23;6.32;;;15.30;99.90;;;;;;5099201;28;20028;-85
2023/09/08 05:24:03;;;;;;;12.82;7.45;;;15.30;99.90;;;;;;5097904;28;20054;-85
2023/09/08 05:26:29;;;;;;;8.98;5.93;;;15.30;99.90;;;;;;5101029;28;20438;-85
2023/09/08 05:28:54;;;;;;;11.30;7.15;;;15.30;99.90;;;;;;5101021;28;20023;-85
2023/09/08 05:31:20;;;;;;;10.38;6.78;;;15.30;99.90;;;;;;5104321;28;20069;-86
2023/09/08 05:33:46;;;;;;;10.55;6.53;;;15.40;99.90;;;;;;5103580;28;20031;-85
2023/09/08 05:36:14;;;;;;;12.50;6.82;;;15.40;99.90;;;;;;5099220;28;20031;-85
2023/09/08 05:38:40;;;;;;;18.02;7.93;;;15.50;99.90;;;;;;5093159;28;20048;-85
2023/09/08 05:41:05;;;;;;;9.63;6.72;;;15.50;99.90;;;;;;5102485;28;20047;-84
2023/09/08 05:43:31;;;;;;;14.52;8.15;;;15.60;99.90;;;;;;5104550;28;20086;-85
2023/09/08 05:45:57;;;;;;;14.15;7.15;;;15.60;99.90;;;;;;5103430;28;20019;-85
2023/09/08 05:48:22;;;;;;;17.48;7.30;;;15.70;99.90;;;;;;5103154;28;20015;-85
2023/09/08 05:50:48;;;;;;;13.85;7.78;;;15.70;99.90;;;;;;5103801;27;20420;-84
2023/09/08 05:53:13;;;;;;;10.35;6.85;;;15.70;99.90;;;;;;5099633;28;20485;-85
2023/09/08 05:55:39;;;;;;;12.52;7.50;;;15.80;99.90;;;;;;5104759;28;20025;-85
2023/09/08 05:58:07;;;;;;;10.55;6.65;;;15.90;99.90;;;;;;5100156;28;20027;-85
2023/09/08 06:00:33;;;;;;;15.98;7.18;;;15.90;99.90;;;;;;5101222;28;20028;-85
2023/09/08 06:02:58;;;;;;;11.82;7.07;;;16.00;99.90;;;;;;5104879;28;20913;-85
2023/09/08 06:05:24;;;;;;;9.75;6.97;;;16.20;99.90;;;;;;5103511;28;20484;-84
2023/09/08 06:07:50;;;;;;;8.80;6.30;;;16.30;99.90;;;;;;5103014;28;20419;-85
2023/09/08 06:10:15;;;;;;;8.98;6.72;;;16.40;99.90;;;;;;5098153;28;20016;-85
2023/09/08 06:12:43;;;;;;;11.20;5.95;;;16.70;99.90;;;;;;5096952;28;20341;-85
2023/09/08 06:15:09;;;;;;;10.38;6.20;;;16.90;99.90;;;;;;5093801;28;20015;-85
2023/09/08 06:17:35;;;;;;;13.48;5.45;;;17.00;99.90;;;;;;5102206;28;20030;-85
2023/09/08 06:20:00;;;;;;;10.10;6.30;;;17.20;99.90;;;;;;5102725;28;20027;-84
2023/09/08 06:22:26;;;;;;;8.40;6.10;;;17.30;99.90;;;;;;5102012;28;20023;-84
2023/09/08 06:24:53;;;;;;;11.43;7.18;;;17.40;99.90;;;;;;5100045;28;20405;-85
2023/09/08 06:27:18;;;;;;;9.05;7.22;;;17.50;99.90;;;;;;5096625;28;20032;-85
2023/09/08 06:29:44;;;;;;;7.68;6.38;;;17.60;99.90;;;;;;5102371;28;20039;-85
2023/09/08 06:32:10;;;;;;;14.85;5.85;;;17.60;99.90;;;;;;5103490;28;20058;-85
2023/09/08 06:34:38;;;;;;;15.95;6.60;;;17.70;99.90;;;;;;5102523;28;20114;-84
2023/09/08 06:37:03;;;;;;;9.93;6.68;;;17.80;99.90;;;;;;5097687;28;20024;-84
2023/09/08 06:39:29;;;;;;;8.45;6.57;;;17.80;99.90;;;;;;5102209;28;20370;-84
2023/09/08 06:41:55;;;;;;;9.30;6.50;;;17.90;99.90;;;;;;5095009;28;20024;-84
2023/09/08 06:44:20;;;;;;;8.55;6.00;;;18.00;99.90;;;;;;5099044;28;20024;-86
2023/09/08 06:46:46;;;;;;;7.28;5.63;;;18.10;99.90;;;;;;5101585;28;20031;-86
2023/09/08 06:49:13;;;;;;;10.43;5.72;;;18.20;99.90;;;;;;5103203;28;20107;-85
2023/09/08 06:51:38;;;;;;;7.30;5.40;;;18.40;99.90;;;;;;5092635;28;20085;-86
2023/09/08 06:54:04;;;;;;;9.50;5.55;;;18.60;99.90;;;;;;5100672;28;20109;-87
2023/09/08 06:56:30;;;;;;;10.30;5.85;;;18.90;99.90;;;;;;5100692;28;20031;-87
2023/09/08 06:58:57;;;;;;;8.35;4.90;;;19.10;99.90;;;;;;5105095;28;20273;-87
2023/09/08 07:01:24;;;;;;;12.13;6.55;;;19.30;99.90;;;;;;5104772;28;20035;-86
2023/09/08 07:03:49;;;;;;;7.13;5.07;;;19.50;99.90;;;;;;5104774;28;20071;-87
2023/09/08 07:06:16;;;;;;;8.65;5.45;;;19.70;99.90;;;;;;5106508;28;20081;-88
2023/09/08 07:08:41;;;;;;;10.23;5.38;;;19.80;99.90;;;;;;5104926;28;20028;-84
2023/09/08 07:11:07;;;;;;;7.30;4.43;;;20.00;99.90;;;;;;5107560;28;20032;-86
2023/09/08 07:13:33;;;;;;;7.95;5.32;;;20.20;99.90;;;;;;5109706;27;20035;-84
2023/09/08 07:15:58;;;;;;;6.90;5.07;;;20.30;99.90;;;;;;5107654;28;20092;-84
2023/09/08 07:18:24;;;;;;;9.40;5.10;;;20.40;99.90;;;;;;5108299;28;20028;-87
2023/09/08 07:20:50;;;;;;;9.13;5.07;;;20.50;99.90;;;;;;5105943;28;20034;-85
2023/09/08 07:23:18;;;;;;;8.45;4.53;;;20.60;99.90;;;;;;5089005;28;20063;-87
2023/09/08 07:25:48;;;;;;;11.63;5.32;;;20.70;99.90;;;;;;5105343;28;20028;-89
2023/09/08 07:28:14;;;;;;;8.60;5.15;;;20.80;99.90;;;;;;5103541;28;20023;-88
2023/09/08 07:30:40;;;;;;;11.27;5.28;;;20.90;99.90;;;;;;5104711;28;20153;-86
2023/09/08 07:33:05;;;;;;;9.63;4.45;;;21.00;99.90;;;;;;5101547;28;20189;-89
2023/09/08 07:35:32;;;;;;;9.00;4.38;;;21.00;99.90;;;;;;5105224;28;20031;-86
2023/09/08 07:37:58;;;;;;;10.25;4.82;;;21.00;99.90;;;;;;5108167;28;20865;-85
2023/09/08 07:40:24;;;;;;;6.80;4.38;;;21.00;99.90;;;;;;5103475;28;20016;-85
2023/09/08 07:42:49;;;;;;;9.32;5.00;;;21.00;99.90;;;;;;5100312;28;20040;-86
2023/09/08 07:45:15;;;;;;;7.80;4.97;;;21.00;99.90;;;;;;5106121;28;20027;-87
2023/09/08 07:47:40;;;;;;;12.85;4.70;;;21.20;99.90;;;;;;5103709;28;20477;-88
2023/09/08 07:50:24;;;;;;;10.20;5.28;;;21.20;99.90;;;;;;5097515;28;20036;-87
2023/09/08 07:52:51;;;;;;;9.70;4.88;;;21.30;99.90;;;;;;5099902;28;20123;-90
2023/09/08 07:55:17;;;;;;;7.28;4.57;;;21.30;99.90;;;;;;5104913;28;20073;-82
2023/09/08 07:57:45;;;;;;;7.20;4.93;;;21.30;99.90;;;;;;5102996;28;20124;-87
2023/09/08 08:00:13;;;;;;;13.50;5.00;;;21.50;99.90;;;;;;5106915;28;20031;-85
2023/09/08 08:02:50;;;;;;;8.65;4.72;;;21.50;99.90;;;;;;5104875;28;20056;-89
2023/09/08 08:05:15;;;;;;;7.88;4.95;;;21.60;99.90;;;;;;5103710;28;20031;-87
2023/09/08 08:07:42;;;;;;;4.32;3.88;;;21.60;99.90;;;;;;5094030;28;20012;-87
2023/09/08 08:10:09;;;;;;;10.50;5.05;;;21.60;99.90;;;;;;5103411;28;20066;-86
2023/09/08 08:12:35;;;;;;;13.27;4.55;;;21.70;99.90;;;;;;5101083;28;20110;-87
2023/09/08 08:15:01;;;;;;;12.27;4.97;;;21.70;99.90;;;;;;5099965;28;20028;-85
2023/09/08 08:17:29;;;;;;;12.43;6.97;;;21.70;99.90;;;;;;5099888;28;20400;-84
2023/09/08 08:19:55;;;;;;;17.05;6.78;;;21.70;99.90;;;;;;5095829;28;20032;-86
2023/09/08 08:22:21;;;;;;;19.58;6.63;;;21.80;99.90;;;;;;5103672;28;20030;-86
2023/09/08 08:24:47;;;;;;;24.58;7.78;;;21.80;99.90;;;;;;5103821;28;20027;-86
2023/09/08 08:27:15;;;;;;;21.98;7.80;;;21.90;99.90;;;;;;5104959;28;20080;-84
2023/09/08 08:29:41;;;;;;;16.98;7.15;;;21.90;99.90;;;;;;5105685;28;20059;-89
2023/09/08 08:32:07;;;;;;;11.27;6.63;;;22.00;99.90;;;;;;5105339;28;20437;-86
2023/09/08 08:34:33;;;;;;;13.88;6.20;;;22.10;99.90;;;;;;5108262;28;20028;-86
2023/09/08 08:37:02;;;;;;;213.40;193.77;;;22.10;99.90;;;;;;5105248;28;20041;-84
2023/09/08 08:39:28;;;;;;;22.02;15.73;;;22.20;99.90;;;;;;5098989;28;20062;-86
2023/09/08 08:41:54;;;;;;;95.38;18.63;;;22.20;99.90;;;;;;5105611;28;20031;-87
2023/09/08 08:44:21;;;;;;;165.88;16.85;;;22.20;99.90;;;;;;5104678;28;20103;-85
2023/09/08 08:46:48;;;;;;;138.05;18.58;;;22.30;99.90;;;;;;5101539;27;20111;-86
2023/09/08 08:49:15;;;;;;;46.90;8.13;;;22.40;99.90;;;;;;5101256;28;20087;-88
2023/09/08 08:51:44;;;;;;;31.80;7.20;;;22.30;99.90;;;;;;5103635;28;20055;-86
2023/09/08 08:54:15;;;;;;;66.13;6.93;;;22.40;99.90;;;;;;5101146;28;20020;-87
2023/09/08 08:56:41;;;;;;;57.22;11.75;;;22.40;99.90;;;;;;5095619;28;20024;-85
2023/09/08 08:59:09;;;;;;;71.55;8.93;;;22.50;99.90;;;;;;5100158;28;20031;-86
2023/09/08 09:01:35;;;;;;;34.13;8.45;;;22.50;99.90;;;;;;5104241;28;20616;-86
2023/09/08 09:04:04;;;;;;;28.25;6.53;;;22.50;99.90;;;;;;5104971;28;20028;-87
2023/09/08 09:06:30;;;;;;;30.38;6.07;;;22.50;99.90;;;;;;5103528;28;20020;-88
2023/09/08 09:08:58;;;;;;;9.13;5.15;;;22.50;99.90;;;;;;5104731;28;20028;-86
2023/09/08 09:11:23;;;;;;;14.13;5.18;;;22.50;99.90;;;;;;5103588;28;20480;-87
2023/09/08 09:13:49;;;;;;;11.18;4.50;;;22.50;99.90;;;;;;5102041;28;20028;-87
2023/09/08 09:16:15;;;;;;;6.60;4.75;;;22.60;99.90;;;;;;5104480;28;20042;-87
2023/09/08 09:18:55;;;;;;;6.05;4.05;;;22.60;99.90;;;;;;5103198;28;20035;-85
2023/09/08 09:21:21;;;;;;;30.73;7.95;;;22.70;99.90;;;;;;5094153;28;20085;-87
2023/09/08 09:23:47;;;;;;;25.92;6.57;;;22.80;99.90;;;;;;5098455;28;20065;-85
2023/09/08 09:26:24;;;;;;;20.25;6.38;;;22.80;99.90;;;;;;5103487;28;20542;-87
2023/09/08 09:28:52;;;;;;;33.17;10.02;;;22.90;99.90;;;;;;5097086;28;20027;-85
2023/09/08 09:31:18;;;;;;;26.35;6.93;;;22.90;99.90;;;;;;5104083;28;20031;-86
2023/09/08 09:33:45;;;;;;;15.18;5.10;;;23.00;99.90;;;;;;5099775;28;20045;-85
2023/09/08 09:36:22;;;;;;;8.65;4.80;;;23.10;99.90;;;;;;5101037;28;20051;-86
2023/09/08 09:38:48;;;;;;;9.00;4.57;;;23.10;99.90;;;;;;5095419;28;20031;-87
2023/09/08 09:41:13;;;;;;;5.07;4.13;;;23.10;99.90;;;;;;5100833;28;20484;-87
2023/09/08 09:43:40;;;;;;;6.00;4.18;;;23.20;99.90;;;;;;5101269;28;20035;-86
2023/09/08 09:46:08;;;;;;;7.78;4.45;;;23.30;99.90;;;;;;5104883;28;20035;-86
2023/09/08 09:48:35;;;;;;;7.10;4.00;;;23.30;99.90;;;;;;5101831;28;20072;-86
2023/09/08 09:51:15;;;;;;;13.05;4.15;;;23.30;99.90;;;;;;5101774;28;20130;-87
2023/09/08 09:53:43;;;;;;;10.77;4.63;;;23.40;99.90;;;;;;5095404;28;20059;-85
2023/09/08 09:56:09;;;;;;;11.13;4.43;;;23.40;99.90;;;;;;5100325;28;20151;-87
2023/09/08 09:58:37;;;;;;;14.10;4.25;;;23.40;99.90;;;;;;5103008;28;20020;-86
2023/09/08 10:01:04;;;;;;;12.35;4.50;;;23.50;99.90;;;;;;5101246;28;20023;-86
2023/09/08 10:03:30;;;;;;;8.73;4.53;;;23.60;99.90;;;;;;5103638;28;20031;-88
2023/09/08 10:05:56;;;;;;;8.57;4.50;;;23.60;99.90;;;;;;5104256;28;20023;-86
2023/09/08 10:08:22;;;;;;;9.68;4.43;;;23.80;99.90;;;;;;5094294;28;20027;-86
2023/09/08 10:10:50;;;;;;;5.28;3.97;;;23.80;99.90;;;;;;5100014;28;20463;-87
2023/09/08 10:13:25;;;;;;;7.55;3.92;;;23.80;99.90;;;;;;5102618;28;20036;-86
2023/09/08 10:15:55;;;;;;;6.78;4.25;;;23.90;99.90;;;;;;5103097;28;20024;-86
2023/09/08 10:18:22;;;;;;;4.47;3.90;;;23.90;99.90;;;;;;5099796;28;20410;-87
2023/09/08 10:20:49;;;;;;;6.03;3.70;;;24.00;99.90;;;;;;5099879;28;20072;-87
2023/09/08 10:23:30;;;;;;;7.45;4.82;;;24.00;99.90;;;;;;5099912;28;20454;-87
2023/09/08 10:26:03;;;;;;;9.85;3.70;;;24.00;99.90;;;;;;5097322;28;20051;-86
2023/09/08 10:28:29;;;;;;;9.40;4.35;;;24.10;99.90;;;;;;5094173;28;20019;-86
2023/09/08 10:30:55;;;;;;;5.82;4.13;;;24.10;99.90;;;;;;5103240;28;20031;-86
2023/09/08 10:33:23;;;;;;;5.63;3.88;;;24.20;99.90;;;;;;5101569;28;20548;-88
2023/09/08 10:35:49;;;;;;;7.10;4.00;;;24.20;99.90;;;;;;5102972;28;20135;-87
2023/09/08 10:38:33;;;;;;;22.35;4.18;;;24.30;99.90;;;;;;5104831;28;20520;-85
2023/09/08 10:41:22;;;;;;;5.65;3.28;;;24.30;99.90;;;;;;5104520;28;20027;-85
2023/09/08 10:44:01;;;;;;;8.95;4.10;;;24.40;99.90;;;;;;5099372;28;20046;-87
2023/09/08 10:46:28;;;;;;;11.07;4.15;;;24.50;99.90;;;;;;5109520;28;20035;-88
2023/09/08 10:49:13;;;;;;;7.25;3.70;;;24.50;99.90;;;;;;5103662;28;20049;-87
2023/09/08 10:51:39;;;;;;;7.37;3.50;;;24.70;99.90;;;;;;5102384;28;20040;-87
2023/09/08 10:54:05;;;;;;;10.43;3.28;;;24.70;99.90;;;;;;5095693;28;20392;-86
2023/09/08 10:56:56;;;;;;;7.43;3.53;;;24.70;99.90;;;;;;5096172;28;20027;-88
2023/09/08 10:59:29;;;;;;;7.63;4.32;;;24.70;99.90;;;;;;5101670;28;20487;-88
2023/09/08 11:01:55;;;;;;;4.32;3.40;;;24.80;99.90;;;;;;5101137;28;20027;-88
2023/09/08 11:04:23;;;;;;;9.88;4.13;;;24.80;99.90;;;;;;5106786;28;20024;-89
2023/09/08 11:06:49;;;;;;;5.55;3.78;;;24.80;99.90;;;;;;5107194;28;20028;-89
2023/09/08 11:09:16;;;;;;;6.05;3.65;;;24.90;99.90;;;;;;5107071;28;20019;-89
2023/09/08 11:11:42;;;;;;;4.55;3.75;;;25.00;99.90;;;;;;5100681;28;20149;-88
2023/09/08 11:14:07;;;;;;;7.53;3.90;;;25.10;99.90;;;;;;5101947;28;20110;-89
2023/09/08 11:16:33;;;;;;;4.28;3.40;;;25.20;99.90;;;;;;5102607;28;20035;-88
2023/09/08 11:19:01;;;;;;;5.05;3.95;;;25.20;99.90;;;;;;5104465;28;20100;-88
2023/09/08 11:21:34;;;;;;;5.13;4.15;;;25.20;99.90;;;;;;5099453;27;20027;-88
2023/09/08 11:24:01;;;;;;;5.70;4.10;;;25.20;99.90;;;;;;5105722;28;20427;-89
2023/09/08 11:26:32;;;;;;;7.45;3.60;;;25.30;99.90;;;;;;5108444;28;20028;-87
2023/09/08 11:28:57;;;;;;;6.78;3.50;;;25.40;99.90;;;;;;5105940;28;20031;-88
2023/09/08 11:31:23;;;;;;;3.72;2.88;;;25.60;99.90;;;;;;5102812;28;20540;-87
2023/09/08 11:33:49;;;;;;;4.90;3.70;;;25.70;99.90;;;;;;5102846;28;20507;-86
2023/09/08 11:36:15;;;;;;;5.35;3.70;;;25.70;99.90;;;;;;5101105;28;20038;-86
2023/09/08 11:38:43;;;;;;;6.20;3.45;;;25.70;99.90;;;;;;5107340;28;20434;-86
2023/09/08 11:41:08;;;;;;;4.47;3.42;;;25.70;99.90;;;;;;5107501;28;20473;-85
2023/09/08 11:43:34;;;;;;;7.05;3.42;;;25.60;99.90;;;;;;5105201;28;20027;-84
2023/09/08 11:46:00;;;;;;;4.68;3.45;;;25.60;99.90;;;;;;5108336;28;20035;-87
2023/09/08 11:48:26;;;;;;;7.43;3.53;;;25.50;99.90;;;;;;5109653;28;20438;-87
2023/09/08 11:50:55;;;;;;;6.53;3.45;;;25.50;99.90;;;;;;5107185;28;20108;-85
2023/09/08 11:53:21;;;;;;;11.27;4.22;;;25.60;99.90;;;;;;5107886;28;20443;-86
2023/09/08 11:55:48;;;;;;;9.55;5.65;;;25.60;99.90;;;;;;5104618;28;20058;-87
2023/09/08 11:58:14;;;;;;;5.63;4.07;;;25.60;99.90;;;;;;5100473;27;20684;-88
2023/09/08 12:00:40;;;;;;;5.68;3.90;;;25.60;99.90;;;;;;5103057;28;20106;-86
2023/09/08 12:03:14;;;;;;;4.70;3.97;;;25.70;99.90;;;;;;5101496;28;20088;-89
2023/09/08 12:05:42;;;;;;;9.52;4.10;;;25.70;99.90;;;;;;5102868;28;20053;-87
2023/09/08 12:08:08;;;;;;;6.28;3.20;;;25.80;99.90;;;;;;5109462;28;20501;-86
2023/09/08 12:10:41;;;;;;;7.85;3.25;;;25.80;99.40;;;;;;5102278;28;20036;-87
2023/09/08 12:13:08;;;;;;;4.22;3.50;;;25.80;99.50;;;;;;5104550;28;20118;-87
2023/09/08 12:15:39;;;;;;;4.60;3.63;;;26.00;99.90;;;;;;5107800;28;20038;-87
2023/09/08 12:18:07;;;;;;;4.78;3.55;;;26.00;99.90;;;;;;5105852;28;20408;-87
2023/09/08 12:20:34;;;;;;;11.68;3.63;;;26.00;99.90;;;;;;5110489;28;20082;-91
2023/09/08 12:23:15;;;;;;;4.90;3.17;;;26.00;98.80;;;;;;5103974;28;20050;-87
2023/09/08 12:25:48;;;;;;;4.38;3.20;;;26.20;88.90;;;;;;5103873;28;20036;-87
2023/09/08 12:28:15;;;;;;;4.22;3.05;;;26.40;83.40;;;;;;5107314;28;20131;-87
2023/09/08 12:30:41;;;;;;;6.63;2.80;;;26.50;80.60;;;;;;5105554;28;20020;-87
2023/09/08 12:33:08;;;;;;;5.60;3.05;;;26.60;83.10;;;;;;5107761;28;20557;-87
2023/09/08 12:35:34;;;;;;;5.05;3.08;;;26.70;61.50;;;;;;5101450;28;20121;-86
2023/09/08 12:38:05;;;;;;;4.97;3.20;;;26.70;67.90;;;;;;5103561;28;20043;-87
2023/09/08 12:40:35;;;;;;;4.53;3.17;;;26.70;71.60;;;;;;5107808;28;20058;-87